Meteo


Dettagli e Storico

Webcam

Webcam in aeroporto – Aggiornata ogni minuto


Osservatorio Meteorologico Cocomaro di Cona – Ferrara

NOAA IMAGE

NOAA

Windy

METAR

Aviation Digital Data Service (ADDS)

Output produced by METARs form (2122 UTC 04 April 2020)
found at http://www.aviationweather.gov/metar/data/
 
METAR text: LIPF 041755Z /////KT CAVOK 16/01 Q1020
Conditions at: LIPF (FERRARA (AUT) , IT) observed 1755 UTC 04 April 2020
Temperature: 16.0°C (61°F)
Dewpoint: 1.0°C (34°F) [RH = 36%]
Pressure (altimeter): 30.12 inches Hg (1020.0 mb)
Winds: missing
Visibility: 6 or more miles (10+ km)
Ceiling: ceiling and visibility are OK
Clouds: unknown
Weather: no significant weather observed at this time

METAR text: LIPE 042050Z 21002KT CAVOK 09/02 Q1022
Conditions at: LIPE (BOLOGNA/BORGO (A, IT) observed 2050 UTC 04 April 2020
Temperature: 9.0°C (48°F)
Dewpoint: 2.0°C (36°F) [RH = 61%]
Pressure (altimeter): 30.18 inches Hg (1022.0 mb)
Winds: from the SSW (210 degrees) at 2 MPH (2 knots; 1.0 m/s)
Visibility: 6 or more miles (10+ km)
Ceiling: ceiling and visibility are OK
Clouds: unknown
Weather: no significant weather observed at this time

Forecast for: LIPE (BOLOGNA/BORGO (A, IT)
Text: TAF LIPE 041700Z 0418/0518 VRB05KT CAVOK
Forecast period: 1800 UTC 04 April 2020 to 0800 UTC 05 April 2020
Forecast type: FROM: standard forecast or significant change
Winds: variable direction winds at 6 MPH (5 knots; 2.6 m/s)
Visibility: 6 or more miles 10+ km)
Ceiling: unknown
Clouds: missing
Weather: NSW  (no significant weather)
Text: BECMG 0508/0510 07010KT
Forecast period: 0800 to 1800 UTC 05 April 2020
Forecast type: BECOMING: Conditions expected to become as follows by 1000 UTC 05 April 2020
Winds: from the ENE (70 degrees) at 12 MPH (10 knots; 5.1 m/s)
Visibility: 6 or more miles 10+ km)
Ceiling: unknown
Clouds: missing
Weather: NSW  (no significant weather)

METAR text: LIPX 042050Z 33004KT CAVOK 10/02 Q1023
Conditions at: LIPX (VILLAFRANCA(CV/M, IT) observed 2050 UTC 04 April 2020
Temperature: 10.0°C (50°F)
Dewpoint: 2.0°C (36°F) [RH = 57%]
Pressure (altimeter): 30.21 inches Hg (1023.0 mb)
Winds: from the NNW (330 degrees) at 5 MPH (4 knots; 2.1 m/s)
Visibility: 6 or more miles (10+ km)
Ceiling: ceiling and visibility are OK
Clouds: unknown
Weather: no significant weather observed at this time

Forecast for: LIPX (VILLAFRANCA(CV/M, IT)
Text: TAF LIPX 042000Z 0421/0506 VRB05KT CAVOK
Forecast period: 2100 UTC 04 April 2020 to 0600 UTC 05 April 2020
Forecast type: FROM: standard forecast or significant change
Winds: variable direction winds at 6 MPH (5 knots; 2.6 m/s)
Visibility: 6 or more miles 10+ km)
Ceiling: unknown
Clouds: missing
Weather: NSW  (no significant weather)

METAR text: LIPZ 042050Z 10007KT CAVOK 14/05 Q1023 NOSIG
Conditions at: LIPZ (VENEZIA/TESSERA , IT) observed 2050 UTC 04 April 2020
Temperature: 14.0°C (57°F)
Dewpoint: 5.0°C (41°F) [RH = 55%]
Pressure (altimeter): 30.21 inches Hg (1023.0 mb)
Winds: from the E (100 degrees) at 8 MPH (7 knots; 3.6 m/s)
Visibility: 6 or more miles (10+ km)
Ceiling: ceiling and visibility are OK
Clouds: unknown
Weather: no significant weather observed at this time

Forecast for: LIPZ (VENEZIA/TESSERA , IT)
Text: TAF LIPZ 041700Z 0418/0524 15006KT CAVOK
Forecast period: 1800 UTC 04 April 2020 to 0000 UTC 06 April 2020
Forecast type: FROM: standard forecast or significant change
Winds: from the SSE (150 degrees) at 7 MPH (6 knots; 3.1 m/s)
Visibility: 6 or more miles 10+ km)
Ceiling: unknown
Clouds: missing
Weather: NSW  (no significant weather)
Text: BECMG 0418/0420 04010KT
Forecast period: 1800 UTC 04 April 2020 to 0000 UTC 06 April 2020
Forecast type: BECOMING: Conditions expected to become as follows by 2000 UTC 04 April 2020
Winds: from the NE (40 degrees) at 12 MPH (10 knots; 5.1 m/s)
Visibility: 6 or more miles 10+ km)
Ceiling: unknown
Clouds: missing
Weather: NSW  (no significant weather)